Time;durP1;ratioP1;P1;durP2;ratioP2;P2;SDS_P1;SDS_P2;PMS_P1;PMS_P2;Temp;Humidity;BMP_temperature;BMP_pressure;BME280_temperature;BME280_humidity;BME280_pressure;Samples;Min_cycle;Max_cycle;Signal;HPM_P1;HPM_P2
2024/02/10 00:02:02;;;;;;;8.98;4.43;;;;;;;;;;7408041;19;19923;-82
2024/02/10 00:04:47;;;;;;;8.77;4.55;;;;;;;;;;7408979;19;19910;-82
2024/02/10 00:07:34;;;;;;;12.55;4.50;;;;;;;;;;7407725;19;20277;-82
2024/02/10 00:10:24;;;;;;;13.45;4.68;;;;;;;;;;7410347;19;19926;-82
2024/02/10 00:13:15;;;;;;;9.15;5.35;;;;;;;;;;7414060;19;19919;-82
2024/02/10 00:16:00;;;;;;;7.88;4.45;;;;;;;;;;7415548;19;19919;-82
2024/02/10 00:18:46;;;;;;;10.68;5.22;;;;;;;;;;7417804;19;20007;-82
2024/02/10 00:21:33;;;;;;;9.55;5.55;;;;;;;;;;7417059;19;19918;-82
2024/02/10 00:24:26;;;;;;;9.18;4.90;;;;;;;;;;7415190;19;19922;-82
2024/02/10 00:27:16;;;;;;;11.95;5.00;;;;;;;;;;7416340;19;19922;-82
2024/02/10 00:30:05;;;;;;;11.00;5.65;;;;;;;;;;7417951;19;19923;-82
2024/02/10 00:32:51;;;;;;;8.55;4.85;;;;;;;;;;7414697;19;20365;-82
2024/02/10 00:35:40;;;;;;;10.02;4.75;;;;;;;;;;7413242;19;19914;-82
2024/02/10 00:38:26;;;;;;;13.15;5.80;;;;;;;;;;7415954;19;19922;-82
2024/02/10 00:41:14;;;;;;;10.27;5.43;;;;;;;;;;7415854;19;19917;-82
2024/02/10 00:44:03;;;;;;;12.98;4.97;;;;;;;;;;7413754;19;19949;-82
2024/02/10 00:46:47;;;;;;;12.18;5.68;;;;;;;;;;7413535;19;19929;-82
2024/02/10 00:49:33;;;;;;;10.88;5.05;;;;;;;;;;7416481;19;19918;-82
2024/02/10 00:52:20;;;;;;;12.38;5.53;;;;;;;;;;7416503;19;19930;-82
2024/02/10 00:55:06;;;;;;;10.25;5.35;;;;;;;;;;7416945;19;19930;-82
2024/02/10 00:57:56;;;;;;;9.93;5.05;;;;;;;;;;7412169;19;19994;-82
2024/02/10 01:00:45;;;;;;;9.25;4.90;;;;;;;;;;7410469;19;19915;-82
2024/02/10 01:03:29;;;;;;;11.68;4.28;;;;;;;;;;7415552;19;19926;-82
2024/02/10 01:06:15;;;;;;;9.27;4.47;;;;;;;;;;7415356;19;19937;-82
2024/02/10 01:09:00;;;;;;;7.40;4.60;;;;;;;;;;7413367;19;19917;-82
2024/02/10 01:11:47;;;;;;;5.43;3.30;;;;;;;;;;7412606;19;19923;-82
2024/02/10 01:14:40;;;;;;;10.25;4.22;;;;;;;;;;7411864;19;19960;-82
2024/02/10 01:17:24;;;;;;;8.00;4.25;;;;;;;;;;7413414;19;19926;-82
2024/02/10 01:20:12;;;;;;;10.30;4.20;;;;;;;;;;7413694;19;19959;-82
2024/02/10 01:22:59;;;;;;;9.63;4.38;;;;;;;;;;7413907;19;19955;-82
2024/02/10 01:25:43;;;;;;;7.25;3.70;;;;;;;;;;7413938;19;20003;-81
2024/02/10 01:28:30;;;;;;;7.63;4.03;;;;;;;;;;7414877;19;19919;-82
2024/02/10 01:31:19;;;;;;;6.40;3.60;;;;;;;;;;7412621;19;19978;-82
2024/02/10 01:34:03;;;;;;;10.43;4.25;;;;;;;;;;7412050;19;19949;-82
2024/02/10 01:36:52;;;;;;;7.43;3.40;;;;;;;;;;7411884;19;19919;-82
2024/02/10 01:39:38;;;;;;;8.05;3.80;;;;;;;;;;7411305;19;19937;-82
2024/02/10 01:42:27;;;;;;;6.05;3.50;;;;;;;;;;7411698;19;20269;-82
2024/02/10 01:45:13;;;;;;;7.30;3.72;;;;;;;;;;7413871;19;19915;-82
2024/02/10 01:48:05;;;;;;;9.07;3.95;;;;;;;;;;7411367;19;19946;-81
2024/02/10 01:50:52;;;;;;;8.63;3.53;;;;;;;;;;7411370;19;19927;-81
2024/02/10 01:53:38;;;;;;;8.80;3.50;;;;;;;;;;7413642;19;20354;-81
2024/02/10 01:56:29;;;;;;;8.52;4.00;;;;;;;;;;7413838;19;19923;-81
2024/02/10 01:59:15;;;;;;;8.35;3.83;;;;;;;;;;7410196;19;19918;-82
2024/02/10 02:02:00;;;;;;;12.02;3.90;;;;;;;;;;7411914;19;19945;-82
2024/02/10 02:04:48;;;;;;;6.50;3.35;;;;;;;;;;7409389;19;19915;-82
2024/02/10 02:07:38;;;;;;;7.80;3.70;;;;;;;;;;7409795;19;19930;-82
2024/02/10 02:10:25;;;;;;;7.70;3.67;;;;;;;;;;7412620;19;19910;-81
2024/02/10 02:13:22;;;;;;;7.18;3.47;;;;;;;;;;7411435;19;19918;-81
2024/02/10 02:16:11;;;;;;;8.85;3.58;;;;;;;;;;7411559;19;19922;-81
2024/02/10 02:18:57;;;;;;;11.48;3.53;;;;;;;;;;7411161;19;19911;-81
2024/02/10 02:21:44;;;;;;;9.25;4.72;;;;;;;;;;7412064;19;19926;-81
2024/02/10 02:24:36;;;;;;;6.68;3.75;;;;;;;;;;7409941;19;20329;-81
2024/02/10 02:27:20;;;;;;;7.45;3.75;;;;;;;;;;7410314;19;19974;-81
2024/02/10 02:30:05;;;;;;;11.13;4.25;;;;;;;;;;7411993;19;19919;-82
2024/02/10 02:32:50;;;;;;;7.47;3.67;;;;;;;;;;7411955;19;19935;-82
2024/02/10 02:35:34;;;;;;;8.63;4.15;;;;;;;;;;7410108;19;19918;-82
2024/02/10 02:38:19;;;;;;;10.98;4.28;;;;;;;;;;7412449;19;19977;-82
2024/02/10 02:41:09;;;;;;;7.68;3.85;;;;;;;;;;7413185;19;19918;-82
2024/02/10 02:43:56;;;;;;;10.13;4.60;;;;;;;;;;7414221;19;19921;-81
2024/02/10 02:46:42;;;;;;;8.48;3.92;;;;;;;;;;7413618;19;20556;-81
2024/02/10 02:49:26;;;;;;;8.77;4.43;;;;;;;;;;7413772;19;19918;-81
2024/02/10 02:52:13;;;;;;;11.95;4.43;;;;;;;;;;7414409;19;19925;-81
2024/02/10 02:54:59;;;;;;;9.95;4.07;;;;;;;;;;7412078;19;20433;-81
2024/02/10 02:57:48;;;;;;;10.45;4.47;;;;;;;;;;7412083;19;19910;-81
2024/02/10 03:00:32;;;;;;;11.05;4.72;;;;;;;;;;7413307;19;19922;-81
2024/02/10 03:03:19;;;;;;;9.00;4.45;;;;;;;;;;7413837;19;20258;-81
2024/02/10 03:06:03;;;;;;;9.38;3.85;;;;;;;;;;7414213;19;19982;-81
2024/02/10 03:08:48;;;;;;;10.25;4.28;;;;;;;;;;7412128;19;19926;-81
2024/02/10 03:11:36;;;;;;;8.82;4.15;;;;;;;;;;7413971;19;20249;-81
2024/02/10 03:14:25;;;;;;;14.07;4.70;;;;;;;;;;7413788;19;19922;-82
2024/02/10 03:17:16;;;;;;;9.93;4.55;;;;;;;;;;7410646;19;19922;-82
2024/02/10 03:20:06;;;;;;;8.75;4.20;;;;;;;;;;7412702;19;19953;-82
2024/02/10 03:23:01;;;;;;;14.20;5.22;;;;;;;;;;7413191;19;19937;-81
2024/02/10 03:25:46;;;;;;;11.27;5.45;;;;;;;;;;7411719;19;19945;-81
2024/02/10 03:28:33;;;;;;;10.52;4.47;;;;;;;;;;7412520;19;19911;-81
2024/02/10 03:31:20;;;;;;;14.55;4.35;;;;;;;;;;7411301;19;19923;-81
2024/02/10 03:34:05;;;;;;;10.82;4.50;;;;;;;;;;7411739;19;19914;-81
2024/02/10 03:36:51;;;;;;;11.35;4.45;;;;;;;;;;7411500;19;19933;-81
2024/02/10 03:39:41;;;;;;;13.63;5.50;;;;;;;;;;7412408;19;20254;-81
2024/02/10 03:45:19;;;;;;;10.38;4.72;;;;;;;;;;7417754;19;19919;-84
2024/02/10 03:48:09;;;;;;;14.27;5.55;;;;;;;;;;7416968;19;19922;-85
2024/02/10 03:50:54;;;;;;;10.75;5.30;;;;;;;;;;7422812;19;20281;-84
2024/02/10 03:53:41;;;;;;;10.70;5.65;;;;;;;;;;7419814;19;19937;-84
2024/02/10 03:56:27;;;;;;;10.90;4.55;;;;;;;;;;7420673;19;19925;-84
2024/02/10 03:59:15;;;;;;;9.75;4.78;;;;;;;;;;7422787;19;20000;-84
2024/02/10 04:01:59;;;;;;;11.55;4.93;;;;;;;;;;7420424;19;20336;-85
2024/02/10 04:04:46;;;;;;;11.77;5.05;;;;;;;;;;7423936;19;20326;-84
2024/02/10 04:07:36;;;;;;;10.68;4.80;;;;;;;;;;7417713;19;19970;-82
2024/02/10 04:10:23;;;;;;;14.15;4.63;;;;;;;;;;7418738;19;19915;-81
2024/02/10 04:13:10;;;;;;;10.63;4.55;;;;;;;;;;7417028;19;19918;-81
2024/02/10 04:15:55;;;;;;;9.02;4.60;;;;;;;;;;7418500;19;19926;-81
2024/02/10 04:18:40;;;;;;;9.88;4.80;;;;;;;;;;7414949;19;20242;-81
2024/02/10 04:21:27;;;;;;;9.15;4.88;;;;;;;;;;7415644;19;19915;-81
2024/02/10 04:24:14;;;;;;;10.80;4.25;;;;;;;;;;7415743;19;19922;-81
2024/02/10 04:27:06;;;;;;;7.85;3.92;;;;;;;;;;7415094;19;19948;-81
2024/02/10 04:29:54;;;;;;;9.18;4.35;;;;;;;;;;7415340;19;19942;-81
2024/02/10 04:32:46;;;;;;;10.68;3.55;;;;;;;;;;7417915;19;20269;-81
2024/02/10 04:35:33;;;;;;;8.63;3.83;;;;;;;;;;7416029;19;19922;-81
2024/02/10 04:38:22;;;;;;;7.65;3.30;;;;;;;;;;7417397;19;19927;-81
2024/02/10 04:41:06;;;;;;;10.02;3.80;;;;;;;;;;7414610;19;19922;-81
2024/02/10 04:43:53;;;;;;;7.82;4.25;;;;;;;;;;7417436;19;19970;-82
2024/02/10 04:46:42;;;;;;;8.48;3.70;;;;;;;;;;7413427;19;20245;-81
2024/02/10 04:49:29;;;;;;;8.18;3.83;;;;;;;;;;7414217;19;19999;-82
2024/02/10 04:52:13;;;;;;;9.55;3.70;;;;;;;;;;7414844;19;19951;-81
2024/02/10 04:55:03;;;;;;;7.65;3.95;;;;;;;;;;7415975;19;19919;-81
2024/02/10 04:57:47;;;;;;;9.77;3.38;;;;;;;;;;7413582;19;19935;-81
2024/02/10 05:00:32;;;;;;;6.70;3.30;;;;;;;;;;7413418;19;19922;-81
2024/02/10 05:03:16;;;;;;;8.00;3.53;;;;;;;;;;7414442;19;19918;-81
2024/02/10 05:06:05;;;;;;;8.30;3.50;;;;;;;;;;7414293;19;19923;-82
2024/02/10 05:08:49;;;;;;;5.95;3.05;;;;;;;;;;7414730;19;19915;-81
2024/02/10 05:11:41;;;;;;;5.35;3.05;;;;;;;;;;7415445;19;19978;-81
2024/02/10 05:14:25;;;;;;;6.05;3.53;;;;;;;;;;7415492;19;20318;-81
2024/02/10 05:17:13;;;;;;;5.43;3.10;;;;;;;;;;7411403;19;19915;-81
2024/02/10 05:19:58;;;;;;;8.05;3.47;;;;;;;;;;7413481;19;19919;-81
2024/02/10 05:22:46;;;;;;;7.32;3.45;;;;;;;;;;7415442;19;19931;-81
2024/02/10 05:25:34;;;;;;;5.32;2.50;;;;;;;;;;7413947;19;20340;-81
2024/02/10 05:28:25;;;;;;;7.18;2.88;;;;;;;;;;7414430;19;19926;-81
2024/02/10 05:31:12;;;;;;;6.85;3.10;;;;;;;;;;7411801;19;19922;-81
2024/02/10 05:33:56;;;;;;;6.63;2.88;;;;;;;;;;7413296;19;19918;-81
2024/02/10 05:36:40;;;;;;;35.63;3.65;;;;;;;;;;7413872;19;19918;-81
2024/02/10 05:39:27;;;;;;;9.73;3.03;;;;;;;;;;7412120;19;19918;-81
2024/02/10 05:42:16;;;;;;;5.72;2.47;;;;;;;;;;7412016;19;19926;-81
2024/02/10 05:45:07;;;;;;;37.35;3.85;;;;;;;;;;7412925;19;19919;-81
2024/02/10 05:47:52;;;;;;;12.65;2.85;;;;;;;;;;7411644;19;19907;-81
2024/02/10 05:50:37;;;;;;;5.18;2.60;;;;;;;;;;7412813;19;19982;-81
2024/02/10 05:53:24;;;;;;;16.85;3.25;;;;;;;;;;7412152;19;19925;-81
2024/02/10 05:56:15;;;;;;;29.25;3.83;;;;;;;;;;7413300;19;19978;-81
2024/02/10 05:59:05;;;;;;;27.45;3.65;;;;;;;;;;7412567;19;19970;-82
2024/02/10 06:01:54;;;;;;;18.08;3.72;;;;;;;;;;7412355;19;19910;-82
2024/02/10 06:04:41;;;;;;;13.48;2.95;;;;;;;;;;7413895;19;19917;-82
2024/02/10 06:07:27;;;;;;;24.95;4.00;;;;;;;;;;7413415;19;19930;-82
2024/02/10 06:10:14;;;;;;;13.23;2.60;;;;;;;;;;7413797;19;19974;-82
2024/02/10 06:13:03;;;;;;;11.73;3.00;;;;;;;;;;7414150;19;19914;-82
2024/02/10 06:15:48;;;;;;;7.60;2.70;;;;;;;;;;7413474;19;19937;-82
2024/02/10 06:18:39;;;;;;;8.20;2.67;;;;;;;;;;7411764;19;19925;-82
2024/02/10 06:21:26;;;;;;;13.20;2.75;;;;;;;;;;7412228;19;19929;-82
2024/02/10 06:24:11;;;;;;;24.13;2.78;;;;;;;;;;7414026;19;19914;-82
2024/02/10 06:26:59;;;;;;;13.00;3.03;;;;;;;;;;7410620;19;19930;-82
2024/02/10 06:29:46;;;;;;;15.45;2.55;;;;;;;;;;7412165;19;19911;-83
2024/02/10 06:32:36;;;;;;;18.63;2.63;;;;;;;;;;7412491;19;19998;-82
2024/02/10 06:35:26;;;;;;;7.95;2.70;;;;;;;;;;7411898;19;19934;-82
2024/02/10 06:38:14;;;;;;;7.45;1.30;;;;;;;;;;7410333;19;20292;-82
2024/02/10 06:40:58;;;;;;;6.22;1.45;;;;;;;;;;7412755;19;19929;-82
2024/02/10 06:43:45;;;;;;;1.92;1.23;;;;;;;;;;7413543;19;19914;-82
2024/02/10 06:46:31;;;;;;;5.72;1.50;;;;;;;;;;7412429;19;19918;-82
2024/02/10 06:49:20;;;;;;;2.80;1.50;;;;;;;;;;7407103;19;19927;-82
2024/02/10 06:52:12;;;;;;;4.13;1.25;;;;;;;;;;7411975;19;19915;-82
2024/02/10 06:54:59;;;;;;;2.97;1.73;;;;;;;;;;7414465;19;19922;-82
2024/02/10 06:57:48;;;;;;;2.78;1.20;;;;;;;;;;7409811;19;20269;-82
2024/02/10 07:00:40;;;;;;;10.35;1.58;;;;;;;;;;7411644;19;20004;-82
2024/02/10 07:03:26;;;;;;;2.67;1.30;;;;;;;;;;7411992;19;19937;-82
2024/02/10 07:06:17;;;;;;;8.98;1.65;;;;;;;;;;7410947;19;19925;-82
2024/02/10 07:09:05;;;;;;;2.53;1.60;;;;;;;;;;7413652;19;19949;-82
2024/02/10 07:11:51;;;;;;;4.35;1.55;;;;;;;;;;7406539;19;19927;-82
2024/02/10 07:14:38;;;;;;;3.60;1.30;;;;;;;;;;7410207;19;19922;-82
2024/02/10 07:17:23;;;;;;;3.58;1.40;;;;;;;;;;7410314;19;19978;-82
2024/02/10 07:20:15;;;;;;;2.88;1.80;;;;;;;;;;7409062;19;19926;-83
2024/02/10 07:23:03;;;;;;;5.03;1.80;;;;;;;;;;7413001;19;20253;-82
2024/02/10 07:25:52;;;;;;;5.97;1.88;;;;;;;;;;7416259;19;20364;-82
2024/02/10 07:28:39;;;;;;;6.07;2.20;;;;;;;;;;7418739;19;19926;-82
2024/02/10 07:31:26;;;;;;;10.27;2.40;;;;;;;;;;7418209;19;19915;-82
2024/02/10 07:34:13;;;;;;;8.10;2.88;;;;;;;;;;7418788;19;19915;-83
2024/02/10 07:36:58;;;;;;;6.80;2.60;;;;;;;;;;7415218;19;19968;-83
2024/02/10 07:39:50;;;;;;;7.20;1.98;;;;;;;;;;7417720;19;20330;-83
2024/02/10 07:42:39;;;;;;;7.57;2.42;;;;;;;;;;7411278;19;20304;-83
2024/02/10 07:45:25;;;;;;;9.30;2.42;;;;;;;;;;7415816;19;19970;-82
2024/02/10 07:48:11;;;;;;;6.50;2.45;;;;;;;;;;7414656;19;19922;-83
2024/02/10 07:50:55;;;;;;;10.48;2.42;;;;;;;;;;7414050;19;19907;-82
2024/02/10 07:53:44;;;;;;;6.85;2.38;;;;;;;;;;7415792;19;19921;-82
2024/02/10 07:56:30;;;;;;;8.60;2.40;;;;;;;;;;7413747;19;19937;-82
2024/02/10 07:59:17;;;;;;;11.32;3.13;;;;;;;;;;7413077;19;19919;-82
2024/02/10 08:02:04;;;;;;;8.25;2.83;;;;;;;;;;7409965;19;20342;-82
2024/02/10 08:04:52;;;;;;;5.78;2.38;;;;;;;;;;7417410;19;20297;-82
2024/02/10 08:07:39;;;;;;;6.75;2.25;;;;;;;;;;7411871;19;19938;-82
2024/02/10 08:10:24;;;;;;;7.93;2.17;;;;;;;;;;7417466;19;19919;-82
2024/02/10 08:13:11;;;;;;;11.65;3.25;;;;;;;;;;7415071;19;19922;-82
2024/02/10 08:16:00;;;;;;;20.90;4.25;;;;;;;;;;7417638;19;19919;-82
2024/02/10 08:18:49;;;;;;;14.75;3.83;;;;;;;;;;7415534;19;20260;-82
2024/02/10 08:21:35;;;;;;;12.38;4.65;;;;;;;;;;7417314;19;19982;-82
2024/02/10 08:24:22;;;;;;;22.83;4.65;;;;;;;;;;7416856;19;19926;-82
2024/02/10 08:27:08;;;;;;;17.88;4.18;;;;;;;;;;7418406;19;20261;-82
2024/02/10 08:29:55;;;;;;;14.90;4.35;;;;;;;;;;7418789;19;19918;-82
2024/02/10 08:32:46;;;;;;;7.97;3.22;;;;;;;;;;7418822;19;20242;-82
2024/02/10 08:35:30;;;;;;;11.57;4.78;;;;;;;;;;7415080;19;20322;-82
2024/02/10 08:38:15;;;;;;;8.88;3.83;;;;;;;;;;7415228;19;20334;-82
2024/02/10 08:41:02;;;;;;;8.38;4.30;;;;;;;;;;7416017;19;19933;-82
2024/02/10 08:43:47;;;;;;;7.18;3.42;;;;;;;;;;7419208;19;19913;-82
2024/02/10 08:46:36;;;;;;;7.65;3.78;;;;;;;;;;7413627;19;19949;-82
2024/02/10 08:49:25;;;;;;;10.15;4.90;;;;;;;;;;7416184;19;19927;-82
2024/02/10 08:52:15;;;;;;;9.80;4.03;;;;;;;;;;7416894;19;20277;-82
2024/02/10 08:55:04;;;;;;;10.18;3.92;;;;;;;;;;7416966;19;19970;-82
2024/02/10 08:57:50;;;;;;;7.57;3.75;;;;;;;;;;7401944;19;19918;-82
2024/02/10 09:00:34;;;;;;;9.35;4.45;;;;;;;;;;7407334;19;20334;-82
2024/02/10 09:03:24;;;;;;;12.43;4.32;;;;;;;;;;7409992;19;19914;-82
2024/02/10 09:06:15;;;;;;;11.70;4.68;;;;;;;;;;7415280;19;19918;-82
2024/02/10 09:09:10;;;;;;;13.30;5.82;;;;;;;;;;7413556;19;20476;-82
2024/02/10 09:11:57;;;;;;;11.35;4.80;;;;;;;;;;7414766;19;19918;-82
2024/02/10 09:14:44;;;;;;;13.68;5.63;;;;;;;;;;7416328;19;19926;-82
2024/02/10 09:17:31;;;;;;;13.05;4.30;;;;;;;;;;7412141;19;19932;-82
2024/02/10 09:20:18;;;;;;;9.30;4.75;;;;;;;;;;7415190;19;19950;-82
2024/02/10 09:23:05;;;;;;;9.90;4.85;;;;;;;;;;7415528;19;20276;-83
2024/02/10 09:25:53;;;;;;;10.48;5.07;;;;;;;;;;7415909;19;19977;-83
2024/02/10 09:28:39;;;;;;;11.85;4.95;;;;;;;;;;7412460;19;19941;-83
2024/02/10 09:31:24;;;;;;;9.90;4.63;;;;;;;;;;7412681;19;19918;-83
2024/02/10 09:34:11;;;;;;;11.50;5.20;;;;;;;;;;7414244;19;19914;-83
2024/02/10 09:36:59;;;;;;;10.82;4.78;;;;;;;;;;7414220;19;19914;-83
2024/02/10 09:39:46;;;;;;;11.85;5.47;;;;;;;;;;7415931;19;19929;-83
2024/02/10 09:42:39;;;;;;;11.52;5.72;;;;;;;;;;7415996;19;19911;-84
2024/02/10 09:45:27;;;;;;;12.27;5.55;;;;;;;;;;7429262;19;19914;-87
2024/02/10 09:48:15;;;;;;;10.35;5.28;;;;;;;;;;7408627;19;19914;-87
2024/02/10 09:51:01;;;;;;;13.55;7.22;;;;;;;;;;7409341;19;19922;-87
2024/02/10 09:53:47;;;;;;;11.95;5.63;;;;;;;;;;7411360;19;19922;-87
2024/02/10 09:56:37;;;;;;;10.18;4.93;;;;;;;;;;7412594;19;19930;-87
2024/02/10 09:59:24;;;;;;;11.27;5.50;;;;;;;;;;7405757;19;19947;-87
2024/02/10 10:02:12;;;;;;;13.63;6.40;;;;;;;;;;7412237;19;19975;-87
2024/02/10 10:04:56;;;;;;;8.85;4.93;;;;;;;;;;7411189;19;19922;-87
2024/02/10 10:07:41;;;;;;;9.23;5.65;;;;;;;;;;7402496;19;19989;-87
2024/02/10 10:10:25;;;;;;;11.38;5.60;;;;;;;;;;7407927;19;20288;-87
2024/02/10 10:13:16;;;;;;;11.52;5.60;;;;;;;;;;7408654;19;19914;-87
2024/02/10 10:16:06;;;;;;;10.25;5.05;;;;;;;;;;7408737;19;19931;-87
2024/02/10 10:18:55;;;;;;;11.65;6.13;;;;;;;;;;7407875;19;19940;-87
2024/02/10 10:21:39;;;;;;;9.88;5.65;;;;;;;;;;7407896;19;19910;-87
2024/02/10 10:24:24;;;;;;;14.43;6.28;;;;;;;;;;7408986;19;19922;-87
2024/02/10 10:27:11;;;;;;;14.00;7.03;;;;;;;;;;7407270;19;19914;-87
2024/02/10 10:29:58;;;;;;;13.15;5.63;;;;;;;;;;7407950;19;20343;-87
2024/02/10 10:32:43;;;;;;;7.32;5.30;;;;;;;;;;7407159;19;19926;-87
2024/02/10 10:35:28;;;;;;;13.00;5.82;;;;;;;;;;7406606;19;20516;-87
2024/02/10 10:38:16;;;;;;;16.10;6.85;;;;;;;;;;7405432;19;19931;-87
2024/02/10 10:41:01;;;;;;;13.18;6.22;;;;;;;;;;7408114;19;19919;-87
2024/02/10 10:43:58;;;;;;;12.77;7.10;;;;;;;;;;7402692;19;19921;-87
2024/02/10 10:46:51;;;;;;;13.05;6.45;;;;;;;;;;7406246;19;20670;-87
2024/02/10 10:49:38;;;;;;;12.82;6.38;;;;;;;;;;7406919;19;20001;-87
2024/02/10 10:52:27;;;;;;;14.23;7.15;;;;;;;;;;7405780;19;19945;-87
2024/02/10 10:55:15;;;;;;;13.63;7.65;;;;;;;;;;7410514;19;19917;-86
2024/02/10 10:58:04;;;;;;;14.10;6.57;;;;;;;;;;7403650;19;20406;-86
2024/02/10 11:00:52;;;;;;;15.05;6.50;;;;;;;;;;7407291;19;20294;-88
2024/02/10 11:03:42;;;;;;;14.35;6.47;;;;;;;;;;7404091;19;19922;-87
2024/02/10 11:06:33;;;;;;;12.75;6.00;;;;;;;;;;7405215;19;19918;-85
2024/02/10 11:09:25;;;;;;;13.40;6.20;;;;;;;;;;7406055;19;19952;-87
2024/02/10 11:12:15;;;;;;;13.18;6.32;;;;;;;;;;7407614;19;19922;-87
2024/02/10 11:15:02;;;;;;;12.27;6.53;;;;;;;;;;7406366;19;19918;-87
2024/02/10 11:17:46;;;;;;;14.00;6.65;;;;;;;;;;7403187;19;19923;-87
2024/02/10 11:20:38;;;;;;;16.83;6.53;;;;;;;;;;7407655;19;19997;-87
2024/02/10 11:23:24;;;;;;;10.18;5.82;;;;;;;;;;7404221;19;19925;-87
2024/02/10 11:26:12;;;;;;;11.35;5.72;;;;;;;;;;7407227;19;19911;-87
2024/02/10 11:29:03;;;;;;;10.80;6.25;;;;;;;;;;7403997;19;19918;-87
2024/02/10 11:31:48;;;;;;;13.10;6.00;;;;;;;;;;7405595;19;19930;-87
2024/02/10 11:34:32;;;;;;;10.05;5.47;;;;;;;;;;7406915;19;19994;-87
2024/02/10 11:37:20;;;;;;;11.35;5.90;;;;;;;;;;7405311;19;19919;-87
2024/02/10 11:40:10;;;;;;;8.00;5.03;;;;;;;;;;7406874;19;20248;-88
2024/02/10 11:42:54;;;;;;;9.70;5.57;;;;;;;;;;7403893;19;20320;-87
2024/02/10 11:45:39;;;;;;;10.48;6.25;;;;;;;;;;7407752;19;19935;-86
2024/02/10 11:48:24;;;;;;;12.32;5.40;;;;;;;;;;7406287;19;19915;-87
2024/02/10 11:51:12;;;;;;;10.65;5.72;;;;;;;;;;7404397;19;19948;-87
2024/02/10 11:54:00;;;;;;;12.50;5.13;;;;;;;;;;7405122;19;19974;-86
2024/02/10 11:56:50;;;;;;;12.95;5.22;;;;;;;;;;7405142;19;19927;-87
2024/02/10 11:59:35;;;;;;;10.32;5.57;;;;;;;;;;7405545;19;19914;-85
2024/02/10 12:02:21;;;;;;;9.65;4.97;;;;;;;;;;7404787;19;19914;-87
2024/02/10 12:05:10;;;;;;;13.93;6.00;;;;;;;;;;7402313;19;19943;-87
2024/02/10 12:07:56;;;;;;;9.07;4.82;;;;;;;;;;7400920;19;19978;-87
2024/02/10 12:10:48;;;;;;;8.15;4.93;;;;;;;;;;7413051;19;19906;-87
2024/02/10 12:13:35;;;;;;;8.77;4.75;;;;;;;;;;7412336;19;20337;-87
2024/02/10 12:16:19;;;;;;;12.10;5.20;;;;;;;;;;7410546;19;19986;-87
2024/02/10 12:19:06;;;;;;;12.48;6.90;;;;;;;;;;7411220;19;20288;-88
2024/02/10 12:21:52;;;;;;;11.48;5.97;;;;;;;;;;7410023;19;19998;-87
2024/02/10 12:24:38;;;;;;;10.48;5.03;;;;;;;;;;7411798;19;20354;-87
2024/02/10 12:27:26;;;;;;;9.77;4.70;;;;;;;;;;7411892;19;19911;-87
2024/02/10 12:30:13;;;;;;;;;;;;;;;;;;7413478;19;19946;-87
2024/02/10 12:33:00;;;;;;;9.43;4.10;;;;;;;;;;7409952;19;19947;-87
2024/02/10 12:35:46;;;;;;;10.35;4.55;;;;;;;;;;7411550;19;20265;-87
2024/02/10 12:38:32;;;;;;;8.15;3.90;;;;;;;;;;7413158;19;19933;-88
2024/02/10 12:41:21;;;;;;;6.28;3.47;;;;;;;;;;7411456;19;19914;-87
2024/02/10 12:44:13;;;;;;;8.73;3.67;;;;;;;;;;7410297;19;20594;-87
2024/02/10 12:47:01;;;;;;;8.63;3.70;;;;;;;;;;7409952;19;19914;-88
2024/02/10 12:49:46;;;;;;;6.15;3.50;;;;;;;;;;7411521;19;19930;-87
2024/02/10 12:52:30;;;;;;;6.88;3.67;;;;;;;;;;7413559;19;20333;-86
2024/02/10 12:55:19;;;;;;;6.90;3.38;;;;;;;;;;7424320;19;19919;-85
2024/02/10 12:58:04;;;;;;;8.50;3.83;;;;;;;;;;7414221;19;20326;-86
2024/02/10 13:00:54;;;;;;;6.55;3.55;;;;;;;;;;7418498;19;19923;-85
2024/02/10 13:03:41;;;;;;;9.73;4.00;;;;;;;;;;7411007;19;19997;-86
2024/02/10 13:06:26;;;;;;;8.50;3.63;;;;;;;;;;7411702;19;19935;-86
2024/02/10 13:09:10;;;;;;;7.63;3.40;;;;;;;;;;7412555;19;20350;-86
2024/02/10 13:11:55;;;;;;;8.00;3.30;;;;;;;;;;7413438;19;20268;-86
2024/02/10 13:14:39;;;;;;;9.68;3.47;;;;;;;;;;7412473;19;19926;-86
2024/02/10 13:17:26;;;;;;;10.38;4.00;;;;;;;;;;7411874;19;19922;-86
2024/02/10 13:20:14;;;;;;;7.70;4.20;;;;;;;;;;7407353;19;19965;-86
2024/02/10 13:22:58;;;;;;;11.55;5.10;;;;;;;;;;7410332;19;19926;-86
2024/02/10 13:25:48;;;;;;;13.60;5.45;;;;;;;;;;7409698;19;19945;-86
2024/02/10 13:28:32;;;;;;;12.60;5.43;;;;;;;;;;7411224;19;19933;-86
2024/02/10 13:31:18;;;;;;;10.80;5.15;;;;;;;;;;7412387;19;19978;-86
2024/02/10 13:34:05;;;;;;;13.90;6.00;;;;;;;;;;7411081;19;19918;-86
2024/02/10 14:00:28;;;;;;;8.95;4.78;;;;;;;;;;7411979;19;19918;-87
2024/02/10 14:03:13;;;;;;;7.57;4.32;;;;;;;;;;7409218;19;19940;-86
2024/02/10 14:06:08;;;;;;;8.85;4.30;;;;;;;;;;7410565;19;19942;-87
2024/02/10 14:08:52;;;;;;;6.75;3.97;;;;;;;;;;7408968;19;20579;-87
2024/02/10 14:11:41;;;;;;;5.53;3.33;;;;;;;;;;7410068;19;19938;-87
2024/02/10 14:14:26;;;;;;;10.35;4.10;;;;;;;;;;7405699;19;19926;-87
2024/02/10 14:17:14;;;;;;;6.72;3.83;;;;;;;;;;7407594;19;19934;-87
2024/02/10 14:20:18;;;;;;;8.40;3.88;;;;;;;;;;7407918;19;19914;-87
2024/02/10 14:23:10;;;;;;;8.65;3.83;;;;;;;;;;7407638;19;21807;-87
2024/02/10 14:26:01;;;;;;;11.73;4.13;;;;;;;;;;7407929;19;19927;-85
2024/02/10 14:28:57;;;;;;;9.27;3.92;;;;;;;;;;7412207;19;19922;-87
2024/02/10 14:31:47;;;;;;;7.65;3.60;;;;;;;;;;7429932;19;19927;-87
2024/02/10 14:35:02;;;;;;;8.60;3.85;;;;;;;;;;7408599;19;20250;-88
2024/02/10 14:37:46;;;;;;;9.80;3.30;;;;;;;;;;7406208;19;19927;-87
2024/02/10 14:40:34;;;;;;;6.55;2.60;;;;;;;;;;7409547;19;19935;-87
2024/02/10 14:43:23;;;;;;;7.40;3.65;;;;;;;;;;7406790;19;19923;-88
2024/02/10 14:46:11;;;;;;;7.28;3.40;;;;;;;;;;7410133;19;19927;-87
2024/02/10 14:49:00;;;;;;;5.13;3.20;;;;;;;;;;7407453;19;19919;-88
2024/02/10 14:51:47;;;;;;;9.95;3.55;;;;;;;;;;7409937;19;19911;-88
2024/02/10 14:54:31;;;;;;;5.95;3.22;;;;;;;;;;7406736;19;20012;-88
2024/02/10 14:57:16;;;;;;;6.97;3.15;;;;;;;;;;7407669;19;20350;-88
2024/02/10 15:00:03;;;;;;;5.80;2.92;;;;;;;;;;7408168;19;20337;-88
2024/02/10 15:02:53;;;;;;;6.93;2.70;;;;;;;;;;7406548;19;19982;-90
2024/02/10 15:05:41;;;;;;;5.07;3.47;;;;;;;;;;7407352;19;19919;-87
2024/02/10 15:08:26;;;;;;;3.83;2.53;;;;;;;;;;7408313;19;19936;-87
2024/02/10 15:11:15;;;;;;;8.10;2.55;;;;;;;;;;7409045;19;20385;-87
2024/02/10 15:14:00;;;;;;;5.75;2.85;;;;;;;;;;7404435;19;19922;-86
2024/02/10 15:16:49;;;;;;;5.65;2.53;;;;;;;;;;7404749;19;19915;-87
2024/02/10 15:19:36;;;;;;;8.43;2.97;;;;;;;;;;7406688;19;19919;-87
2024/02/10 15:22:23;;;;;;;5.85;2.80;;;;;;;;;;7406905;19;19941;-87
2024/02/10 15:25:13;;;;;;;5.10;2.80;;;;;;;;;;7404494;19;19919;-90
2024/02/10 15:27:57;;;;;;;7.88;2.88;;;;;;;;;;7403610;19;19922;-87
2024/02/10 15:30:47;;;;;;;5.88;3.30;;;;;;;;;;7405988;19;19922;-87
2024/02/10 15:33:34;;;;;;;5.13;2.60;;;;;;;;;;7407487;19;19950;-87
2024/02/10 15:36:30;;;;;;;5.63;2.90;;;;;;;;;;7403932;19;19915;-86
2024/02/10 15:39:19;;;;;;;4.85;2.65;;;;;;;;;;7405390;19;19911;-87
2024/02/10 15:42:04;;;;;;;6.95;2.28;;;;;;;;;;7403860;19;19919;-84
2024/02/10 15:44:48;;;;;;;8.85;3.67;;;;;;;;;;7417299;19;19919;-85
2024/02/10 15:47:32;;;;;;;6.43;3.10;;;;;;;;;;7419384;19;19922;-85
2024/02/10 15:50:19;;;;;;;3.78;2.47;;;;;;;;;;7419167;19;19926;-85
2024/02/10 15:53:04;;;;;;;7.63;2.72;;;;;;;;;;7421136;19;19922;-85
2024/02/10 15:55:52;;;;;;;3.45;2.55;;;;;;;;;;7422393;19;19922;-85
2024/02/10 15:58:36;;;;;;;6.50;2.65;;;;;;;;;;7420174;19;20325;-84
2024/02/10 16:01:22;;;;;;;6.55;2.78;;;;;;;;;;7417815;19;19918;-83
2024/02/10 16:04:10;;;;;;;4.82;2.53;;;;;;;;;;7415307;19;19915;-84
2024/02/10 16:06:57;;;;;;;7.00;3.20;;;;;;;;;;7412563;19;19918;-83
2024/02/10 16:09:41;;;;;;;7.35;2.88;;;;;;;;;;7418997;19;19923;-83
2024/02/10 16:12:27;;;;;;;5.68;3.95;;;;;;;;;;7415905;19;19922;-84
2024/02/10 16:15:12;;;;;;;5.75;3.22;;;;;;;;;;7418732;19;19926;-84
2024/02/10 16:17:57;;;;;;;8.80;4.18;;;;;;;;;;7417207;19;19925;-84
2024/02/10 16:20:43;;;;;;;10.00;4.32;;;;;;;;;;7417893;19;19925;-83
2024/02/10 16:23:30;;;;;;;11.20;4.38;;;;;;;;;;7418650;19;20004;-83
2024/02/10 16:26:15;;;;;;;7.05;4.53;;;;;;;;;;7414670;19;19931;-83
2024/02/10 16:28:59;;;;;;;10.95;4.97;;;;;;;;;;7419728;19;19925;-84
2024/02/10 16:31:50;;;;;;;7.35;4.82;;;;;;;;;;7417964;19;19918;-83
2024/02/10 16:34:38;;;;;;;12.85;4.43;;;;;;;;;;7416772;19;19922;-83
2024/02/10 16:37:23;;;;;;;7.60;5.03;;;;;;;;;;7417156;19;19927;-83
2024/02/10 16:40:14;;;;;;;9.73;5.13;;;;;;;;;;7418316;19;19922;-83
2024/02/10 16:42:58;;;;;;;9.50;5.35;;;;;;;;;;7412534;19;20249;-83
2024/02/10 16:45:43;;;;;;;9.85;4.85;;;;;;;;;;7416842;19;19933;-83
2024/02/10 16:48:27;;;;;;;8.18;5.20;;;;;;;;;;7415453;19;19918;-83
2024/02/10 16:51:11;;;;;;;9.15;4.90;;;;;;;;;;7417311;19;19915;-84
2024/02/10 16:53:56;;;;;;;9.43;4.60;;;;;;;;;;7415920;19;20011;-83
2024/02/10 16:56:43;;;;;;;8.07;5.43;;;;;;;;;;7416948;19;20357;-83
2024/02/10 16:59:30;;;;;;;8.68;5.13;;;;;;;;;;7417038;19;19929;-83
2024/02/10 17:02:19;;;;;;;7.70;4.47;;;;;;;;;;7416077;19;19922;-83
2024/02/10 17:05:04;;;;;;;8.82;4.43;;;;;;;;;;7415322;19;19951;-83